Time;durP1;ratioP1;P1;durP2;ratioP2;P2;SDS_P1;SDS_P2;PMS_P1;PMS_P2;Temp;Humidity;BMP_temperature;BMP_pressure;BME280_temperature;BME280_humidity;BME280_pressure;Samples;Min_cycle;Max_cycle;Signal;HPM_P1;HPM_P2
2024/04/07 00:00:43;;;;;;;11.63;6.73;;;;;;;15.91;81.63;97939.34;4080942;29;20718;-83
2024/04/07 00:02:46;;;;;;;6.70;4.70;;;;;;;15.86;81.75;97946.81;4064866;29;20692;-84
2024/04/07 00:04:48;;;;;;;8.07;5.10;;;;;;;15.85;80.88;97940.72;4062728;29;20712;-83
2024/04/07 00:06:50;;;;;;;6.20;3.93;;;;;;;15.84;80.94;97940.88;4079449;29;21173;-84
2024/04/07 00:08:52;;;;;;;7.37;4.60;;;;;;;15.79;79.96;97943.94;4054830;29;20622;-83
2024/04/07 00:10:54;;;;;;;5.17;4.10;;;;;;;15.79;80.00;97940.47;4061335;29;20684;-83
2024/04/07 00:12:56;;;;;;;6.90;4.07;;;;;;;15.75;80.66;97939.09;4069867;29;20660;-84
2024/04/07 00:14:58;;;;;;;8.53;4.13;;;;;;;15.71;80.64;97935.06;4060298;29;21268;-83
2024/04/07 00:17:00;;;;;;;5.53;4.53;;;;;;;15.71;81.89;97938.53;4064334;29;20636;-83
2024/04/07 00:19:03;;;;;;;5.23;4.40;;;;;;;15.70;82.24;97936.88;4091198;28;21172;-84
2024/04/07 00:21:06;;;;;;;10.73;6.80;;;;;;;15.69;80.82;97926.50;4062549;29;20630;-83
2024/04/07 00:23:08;;;;;;;10.97;8.13;;;;;;;15.66;81.36;97914.44;4072601;29;20655;-84
2024/04/07 00:25:11;;;;;;;12.57;5.13;;;;;;;15.63;81.07;97925.25;4070686;29;20703;-83
2024/04/07 00:27:12;;;;;;;5.53;4.10;;;;;;;15.61;80.37;97915.84;4062728;29;20647;-83
2024/04/07 00:29:16;;;;;;;6.40;4.70;;;;;;;15.58;81.67;97922.22;4072821;29;21110;-84
2024/04/07 00:31:18;;;;;;;10.80;4.43;;;;;;;15.56;80.93;97918.91;4060200;29;20757;-84
2024/04/07 00:33:20;;;;;;;6.50;3.90;;;;;;;15.55;80.79;97922.50;4047783;29;20663;-84
2024/04/07 00:35:23;;;;;;;5.87;4.50;;;;;;;15.54;80.77;97916.53;4033413;29;20641;-84
2024/04/07 00:37:28;;;;;;;6.20;3.80;;;;;;;15.53;82.11;97921.00;4061197;29;20631;-84
2024/04/07 00:39:29;;;;;;;6.97;4.40;;;;;;;15.51;81.63;97914.19;4060930;28;20698;-84
2024/04/07 00:41:33;;;;;;;5.97;4.40;;;;;;;15.49;81.13;97905.63;4076795;29;20650;-84
2024/04/07 00:43:36;;;;;;;8.57;5.50;;;;;;;15.48;81.35;97899.53;4062342;29;20629;-84
2024/04/07 00:45:38;;;;;;;7.73;4.43;;;;;;;15.47;82.43;97897.88;4075195;29;20680;-84
2024/04/07 00:48:01;;;;;;;6.20;3.87;;;;;;;15.45;80.66;97893.72;4070466;29;20642;-84
2024/04/07 00:50:03;;;;;;;10.10;4.33;;;;;;;15.45;81.98;97898.97;4046711;29;20708;-84
2024/04/07 00:52:07;;;;;;;7.53;4.23;;;;;;;15.44;81.11;97897.31;4074990;29;20647;-84
2024/04/07 00:54:09;;;;;;;5.00;3.97;;;;;;;15.43;82.00;97893.03;4054070;29;20670;-83
2024/04/07 00:56:12;;;;;;;6.13;4.37;;;;;;;15.41;80.80;97903.69;4041476;29;20723;-84
2024/04/07 00:58:14;;;;;;;5.93;3.97;;;;;;;15.37;82.33;97904.09;4073576;29;20645;-84
2024/04/07 01:00:17;;;;;;;6.50;4.40;;;;;;;15.34;81.62;97897.31;4049039;29;20646;-84
2024/04/07 01:02:20;;;;;;;4.97;3.90;;;;;;;15.31;83.06;97902.84;4073661;29;20782;-84
2024/04/07 01:04:28;;;;;;;5.57;3.77;;;;;;;15.31;82.91;97904.66;4062685;29;20615;-84
2024/04/07 01:06:30;;;;;;;4.70;3.30;;;;;;;15.29;82.66;97901.31;4076770;29;20641;-84
2024/04/07 01:08:36;;;;;;;5.00;3.70;;;;;;;15.28;81.65;97890.00;4061899;29;20640;-83
2024/04/07 01:10:38;;;;;;;6.03;4.13;;;;;;;15.27;81.69;97895.38;4090067;28;20620;-84
2024/04/07 01:12:52;;;;;;;5.63;3.57;;;;;;;15.20;80.63;97894.28;4046842;29;21614;-84
2024/04/07 01:14:55;;;;;;;5.70;3.70;;;;;;;15.19;81.78;97897.88;4062160;29;20627;-84
2024/04/07 01:16:58;;;;;;;7.60;3.77;;;;;;;15.17;82.08;97908.53;4059213;29;20643;-84
2024/04/07 01:19:00;;;;;;;6.10;4.00;;;;;;;15.16;81.37;97892.88;4096084;28;20626;-82
2024/04/07 01:21:04;;;;;;;4.70;3.30;;;;;;;15.13;82.26;97895.75;4071916;29;20650;-84
2024/04/07 01:23:05;;;;;;;9.23;3.97;;;;;;;15.13;81.76;97893.13;4046927;29;21030;-84
2024/04/07 01:25:09;;;;;;;7.57;4.03;;;;;;;15.13;82.24;97903.66;4075791;29;20661;-84
2024/04/07 01:27:11;;;;;;;3.93;3.50;;;;;;;15.13;82.32;97893.97;4069875;29;20636;-84
2024/04/07 01:29:14;;;;;;;4.93;3.33;;;;;;;15.11;82.30;97900.34;4055925;29;20632;-84
2024/04/07 01:31:16;;;;;;;5.10;4.03;;;;;;;15.10;81.85;97903.91;4053405;29;21256;-84
2024/04/07 01:33:19;;;;;;;5.87;3.63;;;;;;;15.08;81.44;97905.88;4031907;29;20660;-84
2024/04/07 01:35:21;;;;;;;7.77;3.87;;;;;;;15.07;81.80;97904.19;4064538;29;20742;-84
2024/04/07 01:37:25;;;;;;;5.10;3.73;;;;;;;15.06;82.71;97907.78;4075785;29;20723;-84
2024/04/07 01:39:26;;;;;;;7.50;4.10;;;;;;;15.05;82.40;97906.13;4065386;29;20638;-84
2024/04/07 01:41:31;;;;;;;8.73;3.87;;;;;;;15.03;83.02;97908.03;4066405;29;20642;-84
2024/04/07 01:43:33;;;;;;;6.20;3.50;;;;;;;15.00;82.58;97905.69;4070710;29;20635;-84
2024/04/07 01:45:36;;;;;;;4.50;3.20;;;;;;;14.99;82.44;97909.31;4058581;29;20724;-84
2024/04/07 01:47:38;;;;;;;6.87;3.60;;;;;;;15.00;82.18;97908.31;4061653;29;20636;-84
2024/04/07 01:49:43;;;;;;;10.10;3.80;;;;;;;14.99;81.72;97914.56;4073302;29;21227;-84
2024/04/07 01:51:45;;;;;;;6.57;3.77;;;;;;;14.96;81.51;97917.47;4073758;29;20629;-84
2024/04/07 01:53:47;;;;;;;7.07;3.60;;;;;;;14.95;81.79;97907.91;4072371;29;21278;-84
2024/04/07 01:55:50;;;;;;;4.97;3.47;;;;;;;14.95;81.87;97912.34;4087359;28;20625;-84
2024/04/07 01:57:54;;;;;;;6.83;3.27;;;;;;;14.95;82.55;97910.53;4077306;29;20649;-84
2024/04/07 01:59:57;;;;;;;5.63;3.33;;;;;;;14.93;82.61;97907.22;4047326;29;20629;-84
2024/04/07 02:01:59;;;;;;;3.97;3.30;;;;;;;14.92;82.87;97910.81;4071720;29;20653;-84
2024/04/07 02:04:02;;;;;;;6.03;3.63;;;;;;;14.92;82.21;97912.59;4059030;29;20643;-82
2024/04/07 02:06:05;;;;;;;7.80;3.97;;;;;;;14.90;82.48;97911.88;4079389;29;20664;-84
2024/04/07 02:08:08;;;;;;;5.53;3.63;;;;;;;14.90;82.41;97906.63;4059572;29;20732;-83
2024/04/07 02:10:11;;;;;;;4.77;3.20;;;;;;;14.90;82.70;97911.88;4061066;29;20646;-84
2024/04/07 02:12:14;;;;;;;5.50;3.53;;;;;;;14.88;82.28;97906.78;4062590;29;20692;-84
2024/04/07 02:14:18;;;;;;;6.90;3.80;;;;;;;14.86;82.34;97911.34;4056584;29;20639;-84
2024/04/07 02:16:20;;;;;;;5.63;3.50;;;;;;;14.86;82.62;97910.53;4078844;29;20634;-84
2024/04/07 02:18:22;;;;;;;4.33;3.53;;;;;;;14.82;82.59;97907.31;4075912;29;20648;-84
2024/04/07 02:20:25;;;;;;;5.20;3.40;;;;;;;14.83;81.76;97910.78;4057599;29;21222;-84
2024/04/07 02:22:28;;;;;;;5.10;3.80;;;;;;;14.80;82.08;97901.38;4072119;29;20639;-84
2024/04/07 02:24:32;;;;;;;4.23;3.40;;;;;;;14.80;82.41;97911.06;4054407;29;20666;-84
2024/04/07 02:26:35;;;;;;;6.43;3.60;;;;;;;14.79;82.46;97905.00;4044053;29;20672;-84
2024/04/07 02:28:38;;;;;;;6.03;3.70;;;;;;;14.78;82.57;97913.81;4060944;29;20640;-84
2024/04/07 02:30:42;;;;;;;5.60;3.30;;;;;;;14.75;82.39;97919.34;4072141;29;21217;-84
2024/04/07 02:32:45;;;;;;;6.60;5.00;;;;;;;14.74;83.00;97907.16;4054859;29;21112;-82
2024/04/07 02:34:47;;;;;;;6.93;3.60;;;;;;;14.72;83.26;97913.53;4055675;29;20726;-83
2024/04/07 02:36:50;;;;;;;6.70;3.33;;;;;;;14.70;83.11;97921.53;4090177;28;20628;-84
2024/04/07 02:38:54;;;;;;;6.10;3.67;;;;;;;14.68;83.02;97917.38;4077791;29;20640;-83
2024/04/07 02:40:56;;;;;;;4.63;3.40;;;;;;;14.65;83.04;97923.72;4062705;28;20623;-83
2024/04/07 02:43:00;;;;;;;5.63;3.50;;;;;;;14.66;83.31;97925.41;4091816;28;21181;-84
2024/04/07 02:49:47;;;;;;;6.80;3.20;;;;;;;14.60;82.84;97918.06;4075201;29;20717;-84
2024/04/07 02:51:48;;;;;;;6.20;3.77;;;;;;;14.59;82.75;97929.50;4075657;29;20667;-84
2024/04/07 02:53:51;;;;;;;7.03;3.60;;;;;;;14.59;83.08;97926.06;4064654;29;20647;-83
2024/04/07 02:55:53;;;;;;;6.10;3.60;;;;;;;14.59;82.82;97927.88;4062140;29;20619;-84
2024/04/07 02:57:56;;;;;;;9.63;3.50;;;;;;;14.60;83.08;97932.97;4044762;29;20647;-84
2024/04/07 02:59:58;;;;;;;4.80;3.20;;;;;;;14.59;83.39;97933.13;4053943;29;20631;-83
2024/04/07 03:02:00;;;;;;;5.83;3.53;;;;;;;14.59;82.74;97940.00;4074067;29;20770;-84
2024/04/07 03:04:04;;;;;;;6.80;3.20;;;;;;;14.59;82.43;97933.94;4034611;29;21197;-84
2024/04/07 03:06:09;;;;;;;6.27;3.37;;;;;;;14.57;82.61;97940.25;4075442;29;20665;-84
2024/04/07 03:08:11;;;;;;;4.00;3.53;;;;;;;14.57;82.69;97943.75;4061953;29;21221;-83
2024/04/07 03:10:16;;;;;;;6.40;3.30;;;;;;;14.55;83.03;97942.22;4046871;29;20639;-83
2024/04/07 03:12:18;;;;;;;5.93;3.30;;;;;;;14.52;82.38;97945.91;4053825;29;20638;-84
2024/04/07 03:14:22;;;;;;;5.00;3.50;;;;;;;14.52;82.92;97950.34;4064955;29;20677;-84
2024/04/07 03:16:24;;;;;;;4.90;3.27;;;;;;;14.48;82.89;97948.94;4077410;29;20651;-84
2024/04/07 03:18:26;;;;;;;7.30;3.60;;;;;;;14.44;82.83;97961.50;4047831;29;21063;-84
2024/04/07 03:20:30;;;;;;;4.90;3.23;;;;;;;14.43;83.20;97956.38;4062052;29;20635;-84
2024/04/07 03:22:33;;;;;;;4.57;3.30;;;;;;;14.37;83.05;97965.63;4057276;29;20663;-84
2024/04/07 03:24:36;;;;;;;5.93;3.47;;;;;;;14.35;82.89;97967.53;4080247;28;20633;-83
2024/04/07 03:26:40;;;;;;;5.20;3.30;;;;;;;14.35;82.76;97966.72;4058152;29;20751;-84
2024/04/07 03:28:41;;;;;;;4.00;3.00;;;;;;;14.34;82.67;97968.50;4076800;29;21095;-84
2024/04/07 03:30:44;;;;;;;8.70;3.60;;;;;;;14.29;82.96;97967.22;4072486;29;20631;-84
2024/04/07 03:32:45;;;;;;;4.67;3.43;;;;;;;14.26;83.39;97975.34;4056596;29;20765;-84
2024/04/07 03:34:48;;;;;;;6.27;3.20;;;;;;;14.27;83.15;97988.34;4072886;29;20650;-84
2024/04/07 03:36:51;;;;;;;6.70;3.83;;;;;;;14.27;83.30;97987.53;4072324;29;21442;-84
2024/04/07 03:38:55;;;;;;;5.20;3.33;;;;;;;14.23;82.90;97984.31;4080495;29;20677;-84
2024/04/07 03:40:56;;;;;;;5.17;3.30;;;;;;;14.19;83.60;98001.28;4073508;29;20702;-84
2024/04/07 03:42:59;;;;;;;4.73;3.47;;;;;;;14.17;83.66;98000.56;4075593;29;20623;-84
2024/04/07 03:45:00;;;;;;;6.20;4.00;;;;;;;14.14;83.70;98000.81;4078904;29;20720;-84
2024/04/07 03:47:05;;;;;;;5.07;3.30;;;;;;;14.11;83.58;98012.56;4077028;28;20657;-84
2024/04/07 03:49:07;;;;;;;5.27;3.23;;;;;;;14.09;84.21;98007.44;4046029;29;20683;-84
2024/04/07 03:51:10;;;;;;;4.60;3.10;;;;;;;14.08;83.40;98010.19;4080700;29;20650;-84
2024/04/07 03:53:13;;;;;;;5.47;3.60;;;;;;;14.04;84.33;98020.03;4049809;29;20638;-84
2024/04/07 03:55:15;;;;;;;5.30;3.23;;;;;;;14.02;84.40;98015.91;4079416;29;20660;-84
2024/04/07 03:57:17;;;;;;;4.70;3.20;;;;;;;14.00;84.54;98018.66;4079634;29;20632;-84
2024/04/07 03:59:19;;;;;;;6.50;3.80;;;;;;;13.97;84.96;98021.53;4090454;28;20640;-84
2024/04/07 04:01:21;;;;;;;4.17;3.30;;;;;;;13.94;85.21;98023.59;4059719;29;20642;-84
2024/04/07 04:03:24;;;;;;;6.73;3.40;;;;;;;13.92;84.34;98020.22;4054850;29;20627;-84
2024/04/07 04:05:27;;;;;;;6.17;4.23;;;;;;;13.92;85.33;98028.94;4055498;29;21195;-84
2024/04/07 04:07:32;;;;;;;3.87;3.00;;;;;;;13.91;84.81;98029.91;4094131;28;21061;-84
2024/04/07 04:09:36;;;;;;;5.40;3.20;;;;;;;13.90;85.04;98040.50;4056340;29;20654;-84
2024/04/07 04:11:38;;;;;;;6.00;3.30;;;;;;;13.88;84.76;98039.81;4063259;29;20637;-84
2024/04/07 04:13:43;;;;;;;5.83;3.80;;;;;;;13.86;85.72;98047.81;4062118;29;20659;-84
2024/04/07 04:15:46;;;;;;;7.07;3.90;;;;;;;13.85;85.92;98054.00;4088286;28;20719;-84
2024/04/07 04:17:47;;;;;;;7.00;3.80;;;;;;;13.85;85.64;98056.63;4081216;28;21206;-84
2024/04/07 04:19:51;;;;;;;9.07;3.90;;;;;;;13.82;86.28;98062.13;4058939;29;20708;-84
2024/04/07 04:21:52;;;;;;;7.00;3.50;;;;;;;13.78;86.08;98062.50;4056578;29;20672;-84
2024/04/07 04:23:55;;;;;;;6.13;3.73;;;;;;;13.73;86.15;98057.63;4048738;29;20635;-84
2024/04/07 04:25:58;;;;;;;5.17;3.47;;;;;;;13.73;85.66;98072.53;4043079;29;21216;-84
2024/04/07 04:28:01;;;;;;;6.17;3.53;;;;;;;13.71;85.18;98064.78;4060305;29;20625;-83
2024/04/07 04:30:05;;;;;;;4.67;3.60;;;;;;;13.68;85.11;98067.66;4076255;29;20645;-84
2024/04/07 04:32:08;;;;;;;4.70;4.00;;;;;;;13.67;86.02;98076.47;4086754;28;20647;-84
2024/04/07 04:34:09;;;;;;;5.00;3.50;;;;;;;13.69;85.88;98074.53;4045925;29;20643;-83
2024/04/07 04:36:13;;;;;;;5.30;3.27;;;;;;;13.69;85.55;98078.97;4043904;29;21273;-84
2024/04/07 04:38:15;;;;;;;7.03;3.10;;;;;;;13.67;86.46;98079.09;4054839;29;20635;-84
2024/04/07 04:40:18;;;;;;;4.57;3.30;;;;;;;13.67;85.51;98086.94;4086649;28;20641;-84
2024/04/07 04:42:21;;;;;;;5.87;3.40;;;;;;;13.64;86.06;98095.06;4064726;28;20636;-84
2024/04/07 04:44:23;;;;;;;4.13;3.20;;;;;;;13.65;86.06;98091.50;4060593;29;20722;-84
2024/04/07 04:46:26;;;;;;;5.17;3.37;;;;;;;13.66;86.02;98090.50;4063173;29;20664;-84
2024/04/07 04:48:28;;;;;;;3.87;3.13;;;;;;;13.65;85.94;98091.50;4061856;29;20649;-84
2024/04/07 04:50:30;;;;;;;7.53;3.57;;;;;;;13.62;85.42;98090.06;4079807;29;20699;-84
2024/04/07 04:52:33;;;;;;;4.40;3.20;;;;;;;13.55;86.00;98088.91;4048893;29;20622;-84
2024/04/07 04:54:36;;;;;;;6.47;3.57;;;;;;;13.49;85.17;98094.63;4056130;29;20627;-84
2024/04/07 04:56:38;;;;;;;8.73;3.43;;;;;;;13.43;85.17;98089.88;4064364;29;20634;-84
2024/04/07 04:58:42;;;;;;;5.10;3.37;;;;;;;13.41;86.13;98097.00;4032705;29;20646;-84
2024/04/07 05:00:45;;;;;;;6.60;3.63;;;;;;;13.45;86.34;98098.44;4074216;29;21289;-84
2024/04/07 05:02:46;;;;;;;4.60;3.37;;;;;;;13.47;86.12;98102.63;4041433;29;20614;-84
2024/04/07 05:04:51;;;;;;;4.40;3.47;;;;;;;13.50;86.66;98114.63;4071987;29;20677;-84
2024/04/07 05:06:54;;;;;;;5.00;3.33;;;;;;;13.55;86.77;98117.72;4085327;28;20739;-84
2024/04/07 05:08:56;;;;;;;7.30;3.67;;;;;;;13.56;87.62;98124.63;4070304;29;20801;-84
2024/04/07 05:11:03;;;;;;;9.30;3.77;;;;;;;13.57;86.38;98123.66;4057227;29;20726;-84
2024/04/07 05:13:05;;;;;;;5.90;4.03;;;;;;;13.55;86.71;98125.59;4057568;29;20719;-84
2024/04/07 05:15:08;;;;;;;7.67;3.93;;;;;;;13.54;86.93;98140.47;4062444;29;21283;-84
2024/04/07 05:17:10;;;;;;;4.80;3.57;;;;;;;13.56;87.28;98128.09;4056811;29;20633;-84
2024/04/07 05:19:12;;;;;;;7.87;4.03;;;;;;;13.56;87.50;98130.72;4045619;29;21265;-84
2024/04/07 05:21:14;;;;;;;5.90;3.90;;;;;;;13.57;87.57;98142.00;4063833;29;20644;-84
2024/04/07 05:23:15;;;;;;;8.13;3.87;;;;;;;13.57;86.69;98149.88;4061408;29;20771;-84
2024/04/07 05:25:18;;;;;;;5.37;4.00;;;;;;;13.60;86.52;98152.25;4062342;29;21183;-84
2024/04/07 05:27:19;;;;;;;4.90;3.67;;;;;;;13.63;86.90;98154.63;4071838;29;21333;-84
2024/04/07 05:29:22;;;;;;;6.73;3.57;;;;;;;13.64;86.74;98157.13;4057430;29;20625;-84
2024/04/07 05:31:25;;;;;;;4.47;3.67;;;;;;;13.67;87.38;98147.22;4056077;29;20630;-84
2024/04/07 05:33:28;;;;;;;7.80;3.50;;;;;;;13.71;87.57;98164.38;4058226;29;21252;-83
2024/04/07 05:35:31;;;;;;;4.20;3.40;;;;;;;13.77;86.58;98176.16;4092528;28;20620;-84
2024/04/07 05:37:33;;;;;;;4.40;3.10;;;;;;;13.76;85.99;98180.56;4055328;29;20718;-84
2024/04/07 05:39:34;;;;;;;4.73;3.13;;;;;;;13.77;86.43;98192.75;4061475;29;20998;-83
2024/04/07 05:41:38;;;;;;;4.57;3.63;;;;;;;13.76;86.52;98195.47;4056352;29;20689;-86
2024/04/07 05:43:40;;;;;;;4.63;3.07;;;;;;;13.72;87.10;98184.38;4062898;29;21014;-84
2024/04/07 05:45:43;;;;;;;4.43;3.80;;;;;;;13.70;87.61;98182.84;4073448;28;21246;-84
2024/04/07 05:47:49;;;;;;;5.53;3.53;;;;;;;13.66;87.53;98182.25;4056027;29;20623;-85
2024/04/07 05:49:52;;;;;;;7.90;4.43;;;;;;;13.63;87.77;98186.91;4027258;29;20625;-84
2024/04/07 05:51:53;;;;;;;6.20;4.20;;;;;;;13.61;87.72;98178.34;4042475;29;20677;-84
2024/04/07 05:53:56;;;;;;;5.43;3.80;;;;;;;13.64;87.21;98180.72;4046020;29;20685;-85
2024/04/07 05:55:57;;;;;;;6.50;3.93;;;;;;;13.66;87.10;98179.63;4079349;29;21260;-85
2024/04/07 05:57:59;;;;;;;6.50;3.47;;;;;;;13.69;86.95;98187.25;4078812;29;20670;-85
2024/04/07 06:00:02;;;;;;;5.40;3.53;;;;;;;13.72;86.87;98189.63;4060074;29;20617;-84
2024/04/07 06:02:14;;;;;;;6.60;3.53;;;;;;;13.75;86.15;98186.75;4071397;29;20617;-85
2024/04/07 06:04:18;;;;;;;10.13;4.00;;;;;;;13.81;86.62;98199.38;4075295;29;20630;-85
2024/04/07 06:06:20;;;;;;;8.10;3.90;;;;;;;13.84;87.72;98211.44;4068666;29;20685;-85
2024/04/07 06:08:22;;;;;;;4.23;3.53;;;;;;;13.83;86.93;98215.84;4084120;28;20704;-87
2024/04/07 06:10:24;;;;;;;8.00;3.50;;;;;;;13.86;87.34;98220.84;4071925;29;20688;-87
2024/04/07 06:12:25;;;;;;;5.10;3.73;;;;;;;13.89;86.31;98217.13;4087186;28;20624;-87
2024/04/07 06:14:28;;;;;;;5.60;3.63;;;;;;;13.93;87.18;98227.25;4075134;29;20649;-90
2024/04/07 06:16:30;;;;;;;6.37;3.50;;;;;;;13.95;87.13;98235.00;4060586;29;21254;-85
2024/04/07 06:18:35;;;;;;;5.37;3.90;;;;;;;14.00;87.01;98235.50;4063626;29;20641;-83
2024/04/07 06:20:39;;;;;;;4.87;3.73;;;;;;;14.03;87.45;98236.06;4066288;29;21485;-82
2024/04/07 06:22:41;;;;;;;5.80;3.60;;;;;;;14.02;86.83;98247.50;4077834;29;20716;-83
2024/04/07 06:24:43;;;;;;;5.57;3.30;;;;;;;14.02;86.58;98244.06;4076468;28;20689;-83
2024/04/07 06:26:47;;;;;;;5.00;4.03;;;;;;;14.02;87.31;98250.13;4043108;29;20669;-83
2024/04/07 06:28:48;;;;;;;4.50;3.50;;;;;;;14.03;88.65;98236.06;4048352;29;20635;-84
2024/04/07 06:30:50;;;;;;;8.30;3.77;;;;;;;14.07;87.91;98249.81;4030677;29;20708;-84
2024/04/07 06:32:52;;;;;;;4.93;3.50;;;;;;;14.04;86.94;98257.88;4033126;29;20658;-86
2024/04/07 06:34:54;;;;;;;4.90;4.00;;;;;;;14.10;87.63;98253.00;4087054;28;20628;-83
2024/04/07 06:36:57;;;;;;;5.00;3.50;;;;;;;14.18;88.71;98267.19;4075924;29;20652;-85
2024/04/07 06:39:00;;;;;;;8.07;4.80;;;;;;;14.27;88.60;98274.31;4060340;29;20663;-83
2024/04/07 06:41:02;;;;;;;5.50;3.87;;;;;;;14.42;87.92;98277.53;4072403;29;20639;-83
2024/04/07 06:43:05;;;;;;;5.67;3.93;;;;;;;14.56;88.60;98285.09;4077112;29;20969;-84
2024/04/07 06:45:06;;;;;;;7.30;4.13;;;;;;;14.80;89.40;98284.75;4078140;29;20633;-84
2024/04/07 06:47:09;;;;;;;7.00;4.03;;;;;;;15.06;89.14;98286.06;4052820;29;20713;-84
2024/04/07 06:49:10;;;;;;;5.43;4.03;;;;;;;15.27;87.51;98292.19;4058704;29;21034;-87
2024/04/07 06:51:12;;;;;;;6.40;4.00;;;;;;;15.49;84.85;98292.06;4056752;29;20632;-87
2024/04/07 06:53:16;;;;;;;10.40;3.97;;;;;;;15.71;84.68;98301.47;4044114;29;20702;-84
2024/04/07 06:55:19;;;;;;;5.10;3.50;;;;;;;15.88;85.13;98308.75;4045883;29;20635;-85
2024/04/07 06:57:21;;;;;;;5.93;3.73;;;;;;;16.13;85.44;98305.63;4062604;29;21035;-82
2024/04/07 06:59:23;;;;;;;4.37;3.57;;;;;;;16.18;86.17;98300.81;4061585;29;20664;-83
2024/04/07 07:01:25;;;;;;;5.67;3.70;;;;;;;16.14;83.99;98305.50;4061396;29;20630;-83
2024/04/07 07:03:26;;;;;;;5.50;3.33;;;;;;;16.11;82.95;98304.94;4080131;29;20638;-86
2024/04/07 07:05:28;;;;;;;4.23;3.07;;;;;;;16.11;81.68;98304.94;4056969;29;20624;-87
2024/04/07 07:07:30;;;;;;;5.53;3.50;;;;;;;16.20;86.71;98315.50;4045368;29;20702;-86
2024/04/07 07:09:34;;;;;;;4.60;4.10;;;;;;;16.23;86.76;98319.72;4062072;29;20662;-88
2024/04/07 07:11:36;;;;;;;6.77;3.80;;;;;;;16.20;86.98;98314.69;4045552;29;20625;-88
2024/04/07 07:13:42;;;;;;;5.20;3.63;;;;;;;16.20;87.76;98325.19;4042994;29;20704;-92
2024/04/07 07:15:43;;;;;;;5.90;3.90;;;;;;;16.26;87.22;98335.22;4081014;29;21192;-88
2024/04/07 07:17:46;;;;;;;5.00;3.37;;;;;;;16.42;84.65;98338.19;4081236;29;20994;-88
2024/04/07 07:19:48;;;;;;;6.13;4.60;;;;;;;16.68;85.59;98342.84;4033536;29;21159;-87
2024/04/07 07:21:51;;;;;;;6.60;3.97;;;;;;;16.98;85.86;98343.56;4058514;29;20629;-84
2024/04/07 07:23:52;;;;;;;4.90;3.10;;;;;;;17.18;83.06;98339.94;4057953;29;20615;-84
2024/04/07 07:25:56;;;;;;;4.20;3.10;;;;;;;17.34;82.89;98348.19;4079658;29;20701;-84
2024/04/07 07:27:57;;;;;;;5.40;3.33;;;;;;;17.43;81.50;98352.63;4092682;28;20663;-86
2024/04/07 07:29:59;;;;;;;5.70;3.30;;;;;;;17.52;82.33;98352.59;4045789;29;21163;-86
2024/04/07 07:32:02;;;;;;;6.83;3.40;;;;;;;17.66;82.08;98357.44;4048860;29;21267;-86
2024/04/07 07:34:04;;;;;;;7.07;3.77;;;;;;;17.78;84.24;98365.03;4046381;29;20628;-85
2024/04/07 07:36:06;;;;;;;6.00;3.33;;;;;;;17.85;85.06;98360.03;4051286;29;20637;-87
2024/04/07 07:38:08;;;;;;;5.70;3.20;;;;;;;17.92;84.05;98362.78;4061773;29;20629;-90
2024/04/07 07:40:10;;;;;;;5.80;3.17;;;;;;;18.05;84.69;98362.47;4067253;29;20612;-82
2024/04/07 07:42:14;;;;;;;5.50;3.60;;;;;;;18.20;81.51;98369.81;4095288;28;20709;-87
2024/04/07 07:44:16;;;;;;;5.80;2.93;;;;;;;18.38;81.64;98359.31;4081050;29;20666;-92
2024/04/07 07:46:18;;;;;;;6.83;3.50;;;;;;;18.57;80.92;98368.81;4075019;29;20641;-92
2024/04/07 07:48:20;;;;;;;7.20;3.10;;;;;;;18.71;81.24;98364.84;4082593;29;20721;-90
2024/04/07 07:50:23;;;;;;;57.97;32.27;;;;;;;18.81;82.21;98370.88;4052446;29;20632;-95
2024/04/07 07:52:25;;;;;;;57.97;38.07;;;;;;;18.88;83.57;98378.94;4078801;29;20754;-90
2024/04/07 07:54:27;;;;;;;44.07;30.03;;;;;;;18.94;82.95;98375.69;4059427;29;20679;-92
2024/04/07 07:56:29;;;;;;;38.07;22.97;;;;;;;19.05;79.73;98366.75;4063905;29;21063;-89
2024/04/07 07:58:34;;;;;;;27.03;15.17;;;;;;;19.18;75.95;98361.91;4081742;29;20723;-90
2024/04/07 08:00:35;;;;;;;19.83;12.60;;;;;;;19.32;75.61;98362.22;4046600;29;20629;-92
2024/04/07 08:02:38;;;;;;;19.57;12.83;;;;;;;19.47;76.30;98369.44;4088104;28;20630;-89
2024/04/07 08:04:39;;;;;;;4.57;2.60;;;;;;;19.68;75.21;98379.69;4065576;29;20646;-90
2024/04/07 08:06:42;;;;;;;5.83;2.67;;;;;;;19.88;74.76;98382.88;4032768;29;20637;-91
2024/04/07 08:08:44;;;;;;;5.73;3.37;;;;;;;20.09;73.24;98383.34;4059473;29;20728;-87
2024/04/07 08:10:47;;;;;;;6.13;2.80;;;;;;;20.29;73.03;98386.63;4038003;29;20657;-92
2024/04/07 08:12:48;;;;;;;9.00;2.70;;;;;;;20.38;72.58;98387.31;4088407;28;20619;-89
2024/04/07 08:14:52;;;;;;;5.13;2.30;;;;;;;20.48;71.65;98390.69;4064952;29;21010;-95
2024/04/07 08:16:54;;;;;;;8.50;2.40;;;;;;;20.51;71.10;98393.03;4080388;29;20626;-92
2024/04/07 08:18:57;;;;;;;4.33;1.90;;;;;;;20.54;69.42;98391.88;4075774;29;21224;-95
2024/04/07 08:23:41;;;;;;;6.60;2.73;;;;;;;20.62;69.25;98387.44;4061655;29;21054;-90
2024/04/07 08:25:45;;;;;;;6.53;2.10;;;;;;;20.74;68.20;98388.03;4062674;29;21093;-91
2024/04/07 08:27:47;;;;;;;7.50;2.40;;;;;;;20.83;66.96;98385.22;4070874;29;20655;-94
2024/04/07 08:29:50;;;;;;;5.73;1.90;;;;;;;20.86;66.37;98391.03;4076922;29;20722;-90
2024/04/07 08:31:53;;;;;;;5.60;2.13;;;;;;;20.90;65.99;98397.69;4031272;29;20630;-90
2024/04/07 08:33:56;;;;;;;5.33;2.57;;;;;;;20.94;67.34;98414.09;4071679;29;20628;-88
2024/04/07 08:35:58;;;;;;;5.47;2.87;;;;;;;21.06;67.86;98411.00;4048396;29;20625;-90
2024/04/07 08:38:01;;;;;;;6.63;2.50;;;;;;;21.16;67.57;98418.84;4071282;29;20637;-89
2024/04/07 08:40:04;;;;;;;6.10;2.30;;;;;;;21.29;66.77;98423.50;4057043;29;21293;-90
2024/04/07 08:42:08;;;;;;;5.95;1.88;;;;;;;21.42;67.13;98421.22;4046962;29;21527;-90
2024/04/07 08:44:13;;;;;;;8.60;2.37;;;;;;;21.46;65.61;98422.56;4080299;29;20203;-95
2024/04/07 08:46:17;;;;;;;5.13;2.10;;;;;;;21.53;67.32;98428.91;4064285;29;20641;-92
2024/04/07 08:48:22;;;;;;;4.67;2.33;;;;;;;21.58;66.86;98421.25;4063478;29;20658;-92
2024/04/07 08:50:25;;;;;;;4.43;1.93;;;;;;;21.66;67.39;98425.75;4076012;29;20616;-93
2024/04/07 08:52:27;;;;;;;5.80;2.20;;;;;;;21.68;66.30;98418.44;4073691;29;21060;-90
2024/04/07 08:54:29;;;;;;;8.30;2.70;;;;;;;21.78;66.25;98411.97;4065930;29;20989;-87
2024/04/07 08:56:34;;;;;;;6.60;2.20;;;;;;;21.83;65.83;98423.75;4076634;29;20636;-92
2024/04/07 08:58:36;;;;;;;5.70;1.90;;;;;;;21.85;65.25;98419.09;4069149;29;20634;-90
2024/04/07 09:00:40;;;;;;;4.93;1.90;;;;;;;21.84;64.92;98421.94;4072991;29;21423;-86
2024/04/07 09:02:42;;;;;;;4.83;2.00;;;;;;;21.87;64.97;98411.78;4059222;29;20625;-88
2024/04/07 09:04:46;;;;;;;3.90;2.07;;;;;;;21.93;65.75;98416.44;4088172;28;20671;-96
2024/04/07 09:06:55;;;;;;;3.87;1.80;;;;;;;22.04;65.80;98417.94;4038524;29;20639;-94
2024/04/07 09:08:57;;;;;;;7.60;2.47;;;;;;;22.06;65.55;98416.78;4047829;29;20627;-90
2024/04/07 09:10:59;;;;;;;6.27;2.00;;;;;;;22.00;65.44;98413.97;4060122;29;20636;-87
2024/04/07 09:13:01;;;;;;;6.90;2.10;;;;;;;22.03;67.14;98421.59;4059661;29;20661;-88
2024/04/07 09:15:04;;;;;;;7.00;2.03;;;;;;;22.11;66.72;98424.25;4047176;29;20629;-89
2024/04/07 09:17:08;;;;;;;6.73;1.93;;;;;;;22.17;65.94;98436.88;4058890;29;22463;-89
2024/04/07 09:19:11;;;;;;;7.00;2.10;;;;;;;22.15;64.96;98431.72;4064802;29;20757;-90
2024/04/07 09:21:18;;;;;;;5.93;2.40;;;;;;;22.18;65.96;98422.59;4045453;29;20649;-90
2024/04/07 09:23:23;;;;;;;3.33;1.70;;;;;;;22.31;65.53;98429.03;4062136;29;20729;-89
2024/04/07 09:25:24;;;;;;;5.30;2.00;;;;;;;22.41;66.19;98427.88;4066975;29;20635;-89
2024/04/07 09:27:27;;;;;;;8.80;3.57;;;;;;;22.50;64.83;98424.19;4064447;29;20733;-87
2024/04/07 09:29:29;;;;;;;7.23;2.13;;;;;;;22.77;65.70;98445.88;4040597;29;20629;-86
2024/04/07 09:31:32;;;;;;;6.67;2.43;;;;;;;23.00;67.02;98438.84;4082266;28;20632;-87
2024/04/07 09:33:34;;;;;;;9.53;2.97;;;;;;;23.18;64.65;98434.09;4070836;29;20769;-87
2024/04/07 09:35:36;;;;;;;4.90;1.70;;;;;;;23.26;64.31;98431.41;4070020;29;20639;-86
2024/04/07 09:37:40;;;;;;;4.70;2.20;;;;;;;23.32;65.50;98438.69;4087908;28;20677;-87
2024/04/07 09:39:43;;;;;;;9.47;2.20;;;;;;;23.42;66.40;98445.44;4028087;29;20749;-87
2024/04/07 09:41:46;;;;;;;7.20;2.20;;;;;;;23.43;63.18;98428.47;4072891;29;20652;-87
2024/04/07 09:43:53;;;;;;;7.10;2.40;;;;;;;23.49;64.64;98427.75;4046777;29;20637;-87